createdAt,value
2019-06-26T00:02:00.227Z,25.45
2019-06-26T00:04:35.569Z,25.34
2019-06-26T00:07:09.782Z,25.24
2019-06-26T00:09:43.948Z,25.17
2019-06-26T00:12:20.300Z,25.07
2019-06-26T00:14:54.646Z,24.99
2019-06-26T00:17:28.827Z,26.92
2019-06-26T00:20:03.247Z,27.89
2019-06-26T00:22:38.781Z,27.23
2019-06-26T00:25:16.378Z,26.68
2019-06-26T00:27:50.300Z,26.30
2019-06-26T00:30:24.813Z,26.04
2019-06-26T00:33:01.137Z,25.82
2019-06-26T00:35:35.198Z,25.66
2019-06-26T00:38:09.589Z,25.49
2019-06-26T00:41:05.996Z,25.37
2019-06-26T00:43:45.083Z,25.21
2019-06-26T00:46:20.158Z,25.09
2019-06-26T00:48:56.309Z,24.96
2019-06-26T00:51:30.464Z,24.86
2019-06-26T01:02:26.715Z,28.24
2019-06-26T01:05:03.324Z,27.47
2019-06-26T01:07:39.009Z,26.91
2019-06-26T01:10:16.232Z,26.54
2019-06-26T01:12:51.236Z,26.23
2019-06-26T01:15:26.845Z,26.02
2019-06-26T01:18:05.670Z,25.79
2019-06-26T01:20:42.539Z,25.57
2019-06-26T01:23:17.626Z,25.41
2019-06-26T01:25:52.075Z,25.23
2019-06-26T01:28:27.202Z,25.07
2019-06-26T01:31:39.720Z,24.92
2019-06-26T01:37:52.145Z,24.62
2019-06-26T01:40:35.943Z,26.88
2019-06-26T01:43:44.522Z,27.71
2019-06-26T01:46:20.429Z,26.77
2019-06-26T01:49:03.498Z,26.21
2019-06-26T01:51:54.945Z,25.79
2019-06-26T01:54:35.731Z,25.52
2019-06-26T01:57:09.578Z,25.27
2019-06-26T01:59:44.157Z,25.06
2019-06-26T02:02:18.092Z,24.90
2019-06-26T02:04:52.522Z,24.71
2019-06-26T02:07:26.552Z,24.56
2019-06-26T02:10:00.568Z,24.43
2019-06-26T02:12:34.793Z,26.50
2019-06-26T02:15:10.836Z,27.43
2019-06-26T02:17:45.159Z,26.64
2019-06-26T02:20:19.649Z,26.03
2019-06-26T02:22:54.255Z,25.61
2019-06-26T02:25:28.226Z,25.31
2019-06-26T02:28:02.315Z,25.05
2019-06-26T02:30:36.189Z,24.82
2019-06-26T02:33:10.371Z,24.62
2019-06-26T02:35:47.350Z,24.47
2019-06-26T02:38:23.052Z,26.48
2019-06-26T02:40:59.873Z,27.43
2019-06-26T02:43:34.617Z,26.59
2019-06-26T02:46:10.469Z,25.97
2019-06-26T02:48:44.644Z,25.54
2019-06-26T02:51:18.876Z,25.21
2019-06-26T02:53:52.940Z,24.95
2019-06-26T03:04:29.138Z,28.15
2019-06-26T03:07:04.504Z,28.44
2019-06-26T03:09:42.435Z,27.36
2019-06-26T03:12:18.336Z,26.57
2019-06-26T03:15:20.978Z,26.07
2019-06-26T03:20:58.171Z,25.28
2019-06-26T03:23:34.245Z,25.00
2019-06-26T03:26:09.776Z,24.81
2019-06-26T03:29:26.915Z,24.59
2019-06-26T03:32:08.421Z,27.58
2019-06-26T03:34:44.524Z,27.99
2019-06-26T03:37:21.325Z,27.03
2019-06-26T03:39:59.047Z,26.36
2019-06-26T03:42:34.343Z,25.88
2019-06-26T03:45:24.575Z,25.55
2019-06-26T03:47:43.997Z,25.27
2019-06-26T03:50:17.373Z,25.03
2019-06-26T03:52:50.446Z,26.98
2019-06-26T03:55:23.878Z,27.96
2019-06-26T03:57:56.963Z,27.16
2019-06-26T04:00:41.436Z,26.50
2019-06-26T04:03:15.463Z,26.03
2019-06-26T04:05:49.638Z,25.71
2019-06-26T04:08:22.806Z,25.47
2019-06-26T04:10:55.954Z,27.33
2019-06-26T04:13:29.774Z,28.10
2019-06-26T04:16:02.860Z,27.37
2019-06-26T04:18:36.091Z,26.78
2019-06-26T04:21:09.232Z,26.36
2019-06-26T04:23:42.411Z,26.06
2019-06-26T04:26:15.490Z,25.85
2019-06-26T04:28:48.725Z,25.62
2019-06-26T04:31:21.883Z,25.48
2019-06-26T04:33:55.044Z,25.36
2019-06-26T04:36:28.205Z,25.23
2019-06-26T04:39:01.919Z,27.47
2019-06-26T04:41:36.425Z,30.29
2019-06-26T04:44:10.043Z,30.19
2019-06-26T04:46:44.141Z,29.05
2019-06-26T04:49:17.637Z,28.24
2019-06-26T04:51:51.237Z,27.76
2019-06-26T04:54:25.067Z,27.43
2019-06-26T04:56:58.497Z,27.17
2019-06-26T04:59:31.978Z,26.96
2019-06-26T05:02:05.362Z,26.81
2019-06-26T05:04:38.789Z,26.66
2019-06-26T05:07:12.881Z,26.57
2019-06-26T05:09:46.718Z,26.48
2019-06-26T05:12:20.182Z,26.40
2019-06-26T05:14:53.642Z,26.37
2019-06-26T05:17:27.336Z,26.33
2019-06-26T05:20:00.847Z,26.33
2019-06-26T05:22:34.258Z,26.31
2019-06-26T05:25:08.175Z,26.33
2019-06-26T05:27:41.749Z,26.33
2019-06-26T05:30:16.025Z,26.37
2019-06-26T05:32:49.657Z,26.40
2019-06-26T05:35:23.531Z,26.46
2019-06-26T05:37:57.377Z,26.51
2019-06-26T05:40:30.908Z,26.55
2019-06-26T05:43:04.506Z,26.65
2019-06-26T05:45:38.097Z,26.71
2019-06-26T05:48:11.742Z,26.78
2019-06-26T05:50:46.342Z,26.88
2019-06-26T05:53:19.805Z,26.93
2019-06-26T05:55:53.181Z,27.02
2019-06-26T05:58:26.581Z,27.13
2019-06-26T06:01:00.265Z,27.24
2019-06-26T06:03:33.974Z,27.36
2019-06-26T06:06:08.734Z,27.47
2019-06-26T06:08:42.636Z,27.60
2019-06-26T06:11:18.013Z,27.72
2019-06-26T06:13:51.580Z,27.84
2019-06-26T06:16:24.989Z,27.98
2019-06-26T06:18:58.986Z,28.10
2019-06-26T06:21:33.178Z,28.22
2019-06-26T06:24:07.554Z,28.36
2019-06-26T06:26:43.667Z,28.46
2019-06-26T06:29:17.280Z,28.57
2019-06-26T06:31:50.980Z,28.68
2019-06-26T06:34:24.578Z,28.81
2019-06-26T06:36:58.228Z,28.89
2019-06-26T06:39:31.863Z,29.02
2019-06-26T06:42:05.540Z,29.12
2019-06-26T06:44:38.993Z,29.23
2019-06-26T06:47:12.250Z,29.36
2019-06-26T06:49:45.480Z,29.49
2019-06-26T06:52:18.575Z,29.58
2019-06-26T06:54:51.759Z,29.69
2019-06-26T06:57:24.990Z,29.81
2019-06-26T06:59:59.158Z,29.94
2019-06-26T07:02:33.108Z,30.06
2019-06-26T07:05:06.579Z,30.16
2019-06-26T07:07:39.746Z,30.32
2019-06-26T07:10:13.201Z,30.40
2019-06-26T07:12:46.440Z,30.54
2019-06-26T07:15:20.285Z,30.67
2019-06-26T07:17:53.842Z,30.82
2019-06-26T07:20:26.987Z,30.94
2019-06-26T07:23:00.885Z,31.06
2019-06-26T07:25:34.193Z,31.21
2019-06-26T07:28:08.462Z,31.29
2019-06-26T07:30:41.867Z,31.44
2019-06-26T07:33:15.535Z,31.53
2019-06-26T07:35:48.840Z,31.63
2019-06-26T07:38:22.173Z,31.71
2019-06-26T07:40:55.576Z,31.83
2019-06-26T07:43:30.215Z,31.91
2019-06-26T07:46:03.667Z,32.03
2019-06-26T07:48:37.060Z,32.11
2019-06-26T07:51:10.841Z,32.21
2019-06-26T07:53:44.238Z,32.32
2019-06-26T07:56:17.764Z,32.42
2019-06-26T07:58:52.256Z,32.52
2019-06-26T08:01:26.636Z,32.62
2019-06-26T08:04:01.160Z,32.71
2019-06-26T08:06:34.940Z,32.77
2019-06-26T08:09:09.898Z,32.88
2019-06-26T08:11:44.844Z,32.97
2019-06-26T08:14:19.707Z,33.04
2019-06-26T08:16:53.543Z,33.17
2019-06-26T08:19:27.299Z,33.24
2019-06-26T08:22:01.187Z,33.35
2019-06-26T08:24:36.314Z,33.42
2019-06-26T08:27:13.225Z,33.53
2019-06-26T08:29:47.240Z,33.62
2019-06-26T08:32:26.040Z,33.73
2019-06-26T08:34:59.446Z,33.83
2019-06-26T08:37:35.304Z,33.89
2019-06-26T08:40:09.834Z,33.99
2019-06-26T08:42:44.189Z,34.07
2019-06-26T08:45:25.371Z,34.14
2019-06-26T08:48:13.484Z,34.24
2019-06-26T08:50:34.424Z,34.31
2019-06-26T08:53:09.769Z,34.37
2019-06-26T08:55:48.661Z,34.44
2019-06-26T08:58:27.378Z,34.55
2019-06-26T09:01:07.289Z,34.66
2019-06-26T09:03:43.749Z,34.78
2019-06-26T09:06:17.895Z,34.86
2019-06-26T09:08:54.275Z,34.95
2019-06-26T09:11:28.016Z,35.02
2019-06-26T09:14:05.534Z,35.10
2019-06-26T09:16:42.415Z,35.18
2019-06-26T09:19:17.759Z,35.29
2019-06-26T09:21:57.086Z,35.34
2019-06-26T09:24:41.643Z,35.44
2019-06-26T09:28:09.124Z,35.51
2019-06-26T09:32:14.049Z,35.61
2019-06-26T09:38:33.965Z,35.78
2019-06-26T09:41:54.877Z,35.85
2019-06-26T09:48:32.998Z,35.95
2019-06-26T09:52:03.585Z,36.02
2019-06-26T09:59:32.845Z,36.16
2019-06-26T10:02:08.331Z,36.23
2019-06-26T10:04:49.092Z,36.27
2019-06-26T10:07:26.395Z,36.29
2019-06-26T10:10:23.458Z,36.30
2019-06-26T10:13:01.121Z,36.33
2019-06-26T10:15:36.167Z,36.36
2019-06-26T10:18:13.929Z,36.39
2019-06-26T10:20:55.521Z,36.43
2019-06-26T10:31:55.534Z,36.61
2019-06-26T10:34:47.789Z,36.73
2019-06-26T10:40:39.239Z,36.91
2019-06-26T10:43:29.175Z,36.98
2019-06-26T10:46:08.209Z,37.05
2019-06-26T10:48:46.525Z,37.12
2019-06-26T10:51:20.486Z,37.19
2019-06-26T10:53:56.646Z,37.23
2019-06-26T10:56:34.684Z,37.29
2019-06-26T10:59:10.254Z,37.33
2019-06-26T11:01:45.332Z,37.40
2019-06-26T11:04:28.517Z,37.46
2019-06-26T11:07:02.568Z,37.55
2019-06-26T11:09:38.165Z,37.63
2019-06-26T11:12:21.565Z,37.68
2019-06-26T11:14:55.992Z,37.73
2019-06-26T11:17:34.384Z,37.77
2019-06-26T11:20:09.501Z,37.80
2019-06-26T11:23:07.936Z,37.87
2019-06-26T11:25:56.839Z,37.90
2019-06-26T11:28:36.545Z,37.95
2019-06-26T11:31:13.578Z,38.02
2019-06-26T11:33:55.655Z,38.08
2019-06-26T11:36:29.229Z,38.12
2019-06-26T11:39:04.194Z,38.18
2019-06-26T11:41:42.668Z,38.19
2019-06-26T11:44:16.558Z,38.25
2019-06-26T11:46:50.724Z,38.26
2019-06-26T11:49:27.544Z,38.30
2019-06-26T11:52:07.035Z,38.33
2019-06-26T11:54:41.114Z,38.36
2019-06-26T11:57:23.681Z,38.36
2019-06-26T11:59:54.111Z,38.39
2019-06-26T12:02:32.975Z,38.42
2019-06-26T12:05:08.403Z,38.43
2019-06-26T12:07:42.336Z,38.45
2019-06-26T12:10:17.081Z,38.50
2019-06-26T12:12:54.519Z,38.52
2019-06-26T12:15:32.107Z,38.55
2019-06-26T12:18:08.348Z,38.57
2019-06-26T12:20:43.547Z,38.56
2019-06-26T12:23:17.050Z,38.59
2019-06-26T12:25:53.933Z,38.56
2019-06-26T12:28:29.865Z,38.59
2019-06-26T12:32:13.646Z,38.60
2019-06-26T12:50:35.459Z,38.80
2019-06-26T12:53:04.382Z,38.80
2019-06-26T12:55:38.541Z,38.84
2019-06-26T12:58:19.979Z,38.87
2019-06-26T13:00:51.663Z,38.88
2019-06-26T13:03:25.195Z,38.94
2019-06-26T13:06:03.575Z,38.93
2019-06-26T13:08:37.991Z,39.01
2019-06-26T13:11:12.993Z,39.01
2019-06-26T13:14:02.413Z,39.01
2019-06-26T13:16:29.323Z,39.04
2019-06-26T13:19:06.369Z,39.03
2019-06-26T13:21:39.911Z,39.07
2019-06-26T13:24:13.536Z,39.05
2019-06-26T13:26:47.140Z,39.05
2019-06-26T13:29:20.924Z,39.10
2019-06-26T13:31:54.871Z,39.10
2019-06-26T13:34:30.112Z,39.08
2019-06-26T13:37:07.323Z,39.11
2019-06-26T13:39:40.398Z,39.14
2019-06-26T13:42:15.181Z,39.12
2019-06-26T13:44:48.729Z,39.10
2019-06-26T13:47:22.304Z,39.10
2019-06-26T13:49:55.898Z,39.08
2019-06-26T13:52:29.612Z,39.10
2019-06-26T13:55:03.116Z,39.08
2019-06-26T13:57:40.178Z,39.07
2019-06-26T14:00:19.747Z,39.07
2019-06-26T14:02:54.742Z,39.07
2019-06-26T14:05:29.663Z,39.04
2019-06-26T14:08:03.357Z,39.00
2019-06-26T14:10:37.353Z,38.97
2019-06-26T14:13:10.937Z,38.96
2019-06-26T14:15:46.111Z,38.91
2019-06-26T14:18:19.622Z,38.88
2019-06-26T14:20:53.990Z,38.84
2019-06-26T14:23:29.251Z,38.81
2019-06-26T14:26:02.767Z,38.80
2019-06-26T14:28:38.269Z,38.77
2019-06-26T14:31:11.787Z,38.74
2019-06-26T14:33:50.145Z,38.70
2019-06-26T14:36:23.914Z,38.62
2019-06-26T14:39:09.212Z,38.57
2019-06-26T14:41:48.086Z,38.50
2019-06-26T14:44:27.259Z,38.40
2019-06-26T14:47:04.042Z,38.33
2019-06-26T14:49:42.659Z,38.28
2019-06-26T14:52:19.758Z,38.23
2019-06-26T14:54:58.192Z,38.18
2019-06-26T14:57:34.390Z,38.16
2019-06-26T15:00:09.794Z,38.11
2019-06-26T15:02:46.145Z,38.10
2019-06-26T15:05:19.872Z,38.08
2019-06-26T15:07:55.560Z,38.02
2019-06-26T15:10:29.336Z,37.96
2019-06-26T15:13:07.567Z,37.94
2019-06-26T15:15:45.625Z,37.90
2019-06-26T15:18:19.538Z,37.83
2019-06-26T15:21:00.896Z,37.77
2019-06-26T15:23:39.749Z,37.67
2019-06-26T15:26:23.390Z,37.60
2019-06-26T15:28:54.164Z,37.53
2019-06-26T15:31:27.869Z,37.49
2019-06-26T15:34:03.824Z,37.46
2019-06-26T15:36:46.994Z,37.37
2019-06-26T15:39:39.665Z,37.33
2019-06-26T15:42:15.594Z,37.26
2019-06-26T15:44:50.800Z,37.19
2019-06-26T15:48:11.197Z,37.16
2019-06-26T15:50:49.072Z,37.09
2019-06-26T15:53:28.138Z,37.09
2019-06-26T15:56:06.427Z,37.02
2019-06-26T15:58:42.137Z,36.96
2019-06-26T16:01:15.836Z,36.96
2019-06-26T16:03:52.822Z,36.92
2019-06-26T16:06:45.669Z,36.89
2019-06-26T16:09:22.159Z,36.85
2019-06-26T16:11:58.913Z,36.81
2019-06-26T16:14:33.721Z,36.78
2019-06-26T16:17:13.406Z,36.77
2019-06-26T16:19:47.466Z,36.73
2019-06-26T16:22:31.864Z,36.71
2019-06-26T16:25:01.318Z,36.64
2019-06-26T16:27:34.959Z,36.59
2019-06-26T16:30:09.406Z,36.58
2019-06-26T16:33:03.358Z,36.53
2019-06-26T16:35:43.629Z,36.51
2019-06-26T16:38:31.069Z,36.47
2019-06-26T16:41:06.406Z,36.43
2019-06-26T16:43:40.256Z,36.40
2019-06-26T16:46:54.743Z,36.36
2019-06-26T16:49:28.660Z,36.34
2019-06-26T16:52:03.238Z,36.31
2019-06-26T16:54:47.752Z,36.27
2019-06-26T16:57:31.009Z,36.24
2019-06-26T17:00:21.399Z,36.20
2019-06-26T17:02:55.406Z,36.18
2019-06-26T17:05:29.238Z,36.16
2019-06-26T17:08:05.448Z,36.09
2019-06-26T17:10:40.357Z,36.06
2019-06-26T17:16:20.112Z,35.95
2019-06-26T17:18:53.903Z,35.88
2019-06-26T17:21:27.232Z,35.85
2019-06-26T17:24:00.549Z,35.79
2019-06-26T17:26:34.236Z,35.74
2019-06-26T17:29:07.552Z,35.67
2019-06-26T17:31:44.399Z,35.61
2019-06-26T17:34:18.022Z,35.55
2019-06-26T17:36:53.223Z,35.50
2019-06-26T17:39:27.763Z,35.45
2019-06-26T17:42:01.271Z,35.37
2019-06-26T17:44:34.769Z,35.31
2019-06-26T17:47:08.195Z,35.23
2019-06-26T17:49:42.745Z,35.16
2019-06-26T17:52:16.119Z,35.07
2019-06-26T17:54:51.011Z,35.03
2019-06-26T17:57:24.413Z,34.92
2019-06-26T17:59:57.854Z,34.83
2019-06-26T18:02:31.496Z,34.76
2019-06-26T18:05:08.995Z,34.66
2019-06-26T18:07:47.409Z,34.59
2019-06-26T18:10:20.841Z,34.52
2019-06-26T18:12:54.281Z,34.45
2019-06-26T18:15:31.448Z,34.35
2019-06-26T18:18:06.758Z,34.30
2019-06-26T18:20:40.081Z,34.24
2019-06-26T18:23:14.937Z,34.17
2019-06-26T18:25:54.083Z,34.13
2019-06-26T18:28:23.750Z,34.08
2019-06-26T18:30:59.190Z,33.99
2019-06-26T18:33:32.510Z,33.94
2019-06-26T18:36:06.063Z,33.89
2019-06-26T18:38:39.559Z,33.81
2019-06-26T18:41:13.447Z,33.79
2019-06-26T18:43:46.786Z,33.72
2019-06-26T18:46:24.785Z,33.62
2019-06-26T18:48:57.097Z,33.59
2019-06-26T18:51:36.085Z,33.52
2019-06-26T18:54:09.711Z,33.48
2019-06-26T18:56:42.897Z,33.41
2019-06-26T18:59:16.345Z,33.33
2019-06-26T19:01:49.631Z,33.29
2019-06-26T19:04:23.042Z,33.22
2019-06-26T19:07:00.466Z,33.15
2019-06-26T19:09:35.691Z,33.11
2019-06-26T19:12:09.081Z,33.04
2019-06-26T19:14:46.080Z,32.98
2019-06-26T19:17:19.887Z,32.93
2019-06-26T19:19:53.447Z,32.87
2019-06-26T19:22:27.006Z,32.78
2019-06-26T19:25:00.994Z,32.71
2019-06-26T19:27:38.553Z,32.67
2019-06-26T19:30:12.553Z,32.62
2019-06-26T19:32:46.599Z,32.55
2019-06-26T19:35:23.041Z,32.52
2019-06-26T19:37:56.722Z,32.42
2019-06-26T19:40:33.616Z,32.39
2019-06-26T19:43:11.189Z,32.36
2019-06-26T19:45:44.705Z,32.29
2019-06-26T19:48:24.605Z,32.26
2019-06-26T19:50:57.919Z,32.19
2019-06-26T19:53:31.556Z,32.16
2019-06-26T19:56:05.026Z,32.08
2019-06-26T19:58:38.335Z,32.05
2019-06-26T20:01:11.757Z,31.99
2019-06-26T20:03:46.223Z,31.94
2019-06-26T20:06:19.563Z,31.88
2019-06-26T20:08:57.295Z,31.84
2019-06-26T20:11:28.073Z,31.76
2019-06-26T20:14:01.207Z,31.70
2019-06-26T20:16:53.180Z,31.63
2019-06-26T20:19:29.394Z,31.59
2019-06-26T20:22:04.216Z,31.51
2019-06-26T20:24:44.134Z,31.46
2019-06-26T20:27:13.334Z,31.39
2019-06-26T20:29:46.566Z,31.34
2019-06-26T20:32:19.858Z,31.28
2019-06-26T20:34:53.146Z,31.21
2019-06-26T20:37:26.343Z,31.15
2019-06-26T20:40:00.000Z,31.11
2019-06-26T20:42:33.380Z,31.04
2019-06-26T20:45:08.605Z,30.99
2019-06-26T20:47:42.206Z,30.92
2019-06-26T20:50:16.730Z,30.87
2019-06-26T20:52:50.839Z,30.79
2019-06-26T20:55:24.431Z,30.74
2019-06-26T20:57:58.758Z,30.71
2019-06-26T21:00:32.632Z,30.64
2019-06-26T21:03:05.967Z,30.60
2019-06-26T21:05:39.237Z,30.54
2019-06-26T21:08:12.460Z,30.47
2019-06-26T21:10:47.266Z,30.41
2019-06-26T21:13:20.898Z,30.34
2019-06-26T21:15:55.160Z,30.30
2019-06-26T21:18:28.793Z,30.22
2019-06-26T21:21:05.046Z,30.13
2019-06-26T21:23:38.539Z,30.11
2019-06-26T21:26:11.787Z,30.02
2019-06-26T21:28:46.206Z,29.96
2019-06-26T21:31:19.486Z,29.89
2019-06-26T21:33:52.638Z,29.83
2019-06-26T21:36:25.893Z,29.75
2019-06-26T21:38:59.152Z,29.69
2019-06-26T21:41:32.445Z,29.60
2019-06-26T21:44:05.858Z,29.53
2019-06-26T21:46:40.231Z,29.46
2019-06-26T21:49:13.518Z,29.43
2019-06-26T21:51:46.722Z,29.33
2019-06-26T21:54:19.945Z,29.28
2019-06-26T21:57:11.303Z,29.20
2019-06-26T22:00:02.312Z,29.13
2019-06-26T22:02:57.605Z,29.09
2019-06-26T22:05:32.964Z,29.02
2019-06-26T22:08:19.512Z,28.96
2019-06-26T22:10:54.646Z,28.89
2019-06-26T22:13:28.106Z,28.82
2019-06-26T22:16:01.553Z,28.78
2019-06-26T22:18:36.540Z,28.73
2019-06-26T22:21:09.972Z,28.70
2019-06-26T22:23:45.765Z,28.65
2019-06-26T22:26:19.122Z,28.57
2019-06-26T22:28:52.477Z,28.54
2019-06-26T22:31:25.996Z,28.47
2019-06-26T22:33:59.672Z,28.43
2019-06-26T22:36:39.249Z,28.36
2019-06-26T22:39:09.211Z,28.31
2019-06-26T22:41:43.991Z,28.26
2019-06-26T22:44:17.590Z,28.20
2019-06-26T22:46:51.115Z,28.15
2019-06-26T22:49:25.440Z,28.09
2019-06-26T22:51:59.557Z,28.05
2019-06-26T22:54:33.128Z,28.01
2019-06-26T22:57:06.568Z,27.96
2019-06-26T22:59:41.215Z,27.92
2019-06-26T23:02:14.850Z,27.88
2019-06-26T23:04:48.472Z,27.84
2019-06-26T23:07:22.361Z,27.81
2019-06-26T23:09:55.814Z,27.76
2019-06-26T23:12:29.469Z,27.71
2019-06-26T23:15:04.061Z,27.71
2019-06-26T23:17:37.628Z,27.64
2019-06-26T23:20:11.577Z,27.58
2019-06-26T23:22:46.435Z,27.53
2019-06-26T23:25:21.334Z,27.46
2019-06-26T23:27:55.021Z,27.38
2019-06-26T23:30:28.781Z,27.34
2019-06-26T23:33:02.315Z,27.26
2019-06-26T23:35:47.212Z,27.21
2019-06-26T23:38:16.860Z,27.13
2019-06-26T23:40:50.532Z,27.06
2019-06-26T23:43:24.138Z,27.03
2019-06-26T23:45:57.738Z,26.98
2019-06-26T23:48:34.237Z,26.93
2019-06-26T23:51:08.980Z,26.86
2019-06-26T23:53:48.964Z,26.82
2019-06-26T23:56:39.479Z,26.78
2019-06-26T23:58:59.663Z,26.71
